Time;durP1;ratioP1;P1;durP2;ratioP2;P2;SDS_P1;SDS_P2;PMS_P1;PMS_P2;Temp;Humidity;BMP_temperature;BMP_pressure;BME280_temperature;BME280_humidity;BME280_pressure;Samples;Min_cycle;Max_cycle;Signal;HPM_P1;HPM_P2
2021/12/15 00:00:55;;;;;;;37.53;28.35;;;10.70;99.90;;;;;;4973866;28;20102;-83
2021/12/15 00:03:21;;;;;;;35.30;28.23;;;10.70;99.90;;;;;;4971688;28;20059;-84
2021/12/15 00:05:49;;;;;;;33.28;27.95;;;10.70;99.90;;;;;;4972736;28;20475;-85
2021/12/15 00:08:14;;;;;;;35.25;28.73;;;10.80;99.90;;;;;;4972570;28;20026;-86
2021/12/15 00:10:41;;;;;;;34.17;28.33;;;10.80;99.90;;;;;;4973041;28;20030;-86
2021/12/15 00:13:07;;;;;;;37.53;29.30;;;10.80;99.90;;;;;;4972178;28;20093;-86
2021/12/15 00:15:33;;;;;;;44.63;32.90;;;10.80;99.90;;;;;;4972137;28;20027;-85
2021/12/15 00:18:00;;;;;;;41.95;31.05;;;10.80;99.90;;;;;;4971662;28;20030;-86
2021/12/15 00:20:28;;;;;;;54.95;39.67;;;10.80;99.90;;;;;;4973332;28;20029;-85
2021/12/15 00:22:54;;;;;;;62.42;43.83;;;10.80;99.90;;;;;;4971977;28;20039;-84
2021/12/15 00:25:23;;;;;;;62.53;45.13;;;10.70;99.90;;;;;;4971527;28;20029;-85
2021/12/15 00:27:50;;;;;;;86.55;58.33;;;10.70;99.90;;;;;;4973296;28;20031;-84
2021/12/15 00:30:16;;;;;;;60.50;43.92;;;10.80;99.90;;;;;;4971943;28;20054;-85
2021/12/15 00:32:42;;;;;;;85.28;60.25;;;10.70;99.90;;;;;;4971056;28;20394;-84
2021/12/15 00:35:08;;;;;;;62.17;45.53;;;10.70;99.90;;;;;;4972524;28;20027;-84
2021/12/15 00:37:35;;;;;;;46.05;36.10;;;10.70;99.90;;;;;;4972628;28;20042;-85
2021/12/15 00:40:00;;;;;;;34.92;30.02;;;10.70;99.90;;;;;;4971228;28;20018;-84
2021/12/15 00:42:26;;;;;;;34.85;27.52;;;10.70;99.90;;;;;;4971269;28;20097;-84
2021/12/15 00:44:52;;;;;;;31.90;27.30;;;10.80;99.90;;;;;;4973515;28;20091;-84
2021/12/15 00:47:17;;;;;;;34.05;27.80;;;10.80;99.90;;;;;;4970864;28;20026;-85
2021/12/15 00:49:44;;;;;;;32.38;27.83;;;10.80;99.90;;;;;;4972946;28;20022;-83
2021/12/15 00:52:33;;;;;;;35.65;27.23;;;10.80;99.90;;;;;;4972785;28;20085;-83
2021/12/15 00:55:00;;;;;;;32.40;27.58;;;10.80;99.90;;;;;;4971349;28;20024;-83
2021/12/15 00:57:56;;;;;;;32.50;27.75;;;10.80;99.90;;;;;;4972347;28;20035;-83
2021/12/15 01:00:32;;;;;;;32.97;26.73;;;10.80;99.90;;;;;;4971998;28;20387;-84
2021/12/15 01:02:58;;;;;;;31.25;26.95;;;10.80;99.90;;;;;;4972506;28;20066;-84
2021/12/15 01:05:30;;;;;;;34.03;27.50;;;10.80;99.90;;;;;;4972375;28;20030;-83
2021/12/15 01:07:55;;;;;;;35.05;28.02;;;10.70;99.90;;;;;;4971693;28;20029;-85
2021/12/15 01:10:29;;;;;;;29.70;25.23;;;10.70;99.90;;;;;;4970959;28;20031;-84
2021/12/15 01:21:05;;;;;;;35.15;28.70;;;10.70;99.90;;;;;;4957502;28;20042;-85
2021/12/15 01:23:32;;;;;;;39.78;29.80;;;10.70;99.90;;;;;;4970534;28;20047;-85
2021/12/15 01:26:04;;;;;;;34.25;27.55;;;10.70;99.90;;;;;;4971139;28;20023;-87
2021/12/15 01:28:30;;;;;;;31.77;26.05;;;10.70;99.90;;;;;;4971757;28;20063;-86
2021/12/15 01:30:58;;;;;;;30.23;25.55;;;10.70;99.90;;;;;;4971455;28;20374;-85
2021/12/15 01:33:25;;;;;;;32.35;25.98;;;10.70;99.90;;;;;;4972436;28;20535;-86
2021/12/15 01:35:54;;;;;;;31.67;26.58;;;10.80;99.90;;;;;;4970846;28;20094;-86
2021/12/15 01:38:25;;;;;;;32.83;27.27;;;10.80;99.90;;;;;;4949637;28;20500;-85
2021/12/15 01:40:52;;;;;;;33.47;27.02;;;10.80;99.90;;;;;;4960918;28;20062;-84
2021/12/15 01:43:26;;;;;;;37.03;28.83;;;10.80;99.90;;;;;;4947327;28;20038;-86
2021/12/15 01:48:42;;;;;;;31.83;27.05;;;10.70;99.90;;;;;;4954015;28;20618;-87
2021/12/15 01:51:10;;;;;;;38.95;30.58;;;10.70;99.90;;;;;;4952457;28;20102;-90
2021/12/15 01:53:37;;;;;;;35.42;29.48;;;10.70;99.90;;;;;;4951608;28;20412;-82
2021/12/15 01:56:04;;;;;;;37.10;30.13;;;10.70;99.90;;;;;;4949730;28;20029;-81
2021/12/15 01:58:31;;;;;;;32.33;28.15;;;10.70;99.90;;;;;;4952314;28;20148;-84
2021/12/15 02:01:00;;;;;;;35.08;28.60;;;10.70;99.90;;;;;;4944533;28;20071;-81
2021/12/15 02:03:26;;;;;;;37.05;29.02;;;10.70;99.90;;;;;;4943246;29;20063;-82
2021/12/15 02:05:52;;;;;;;38.25;31.08;;;10.70;99.90;;;;;;4941331;29;20031;-83
2021/12/15 02:08:18;;;;;;;39.70;30.20;;;10.70;99.90;;;;;;4945076;28;20030;-84
2021/12/15 02:10:45;;;;;;;35.00;29.33;;;10.70;99.90;;;;;;4934640;29;20031;-83
2021/12/15 02:13:14;;;;;;;37.78;29.83;;;10.70;99.90;;;;;;4948034;29;20111;-83
2021/12/15 02:15:44;;;;;;;36.67;30.00;;;10.80;99.90;;;;;;4933264;29;20027;-81
2021/12/15 02:18:12;;;;;;;34.08;28.77;;;10.80;99.90;;;;;;4933269;29;20095;-81
2021/12/15 02:20:41;;;;;;;36.65;28.88;;;10.80;99.90;;;;;;4935417;29;20488;-82
2021/12/15 02:23:10;;;;;;;31.65;25.27;;;10.80;99.90;;;;;;4944089;29;20043;-83
2021/12/15 02:25:36;;;;;;;31.17;26.75;;;10.80;99.90;;;;;;4965526;28;20094;-84
2021/12/15 02:28:03;;;;;;;36.10;29.17;;;10.80;99.90;;;;;;4993192;28;20122;-84
2021/12/15 02:30:50;;;;;;;37.15;30.30;;;10.80;99.90;;;;;;4993611;28;20019;-82
2021/12/15 02:38:36;;;;;;;37.33;30.85;;;10.80;99.90;;;;;;4972762;28;20400;-83
2021/12/15 02:41:10;;;;;;;36.95;29.80;;;10.70;99.90;;;;;;4972129;28;20431;-82
2021/12/15 02:43:36;;;;;;;34.17;25.90;;;10.80;99.90;;;;;;4973290;28;20033;-83
2021/12/15 02:46:03;;;;;;;31.30;27.50;;;10.80;99.90;;;;;;4973469;28;20042;-82
2021/12/15 02:48:29;;;;;;;35.20;29.00;;;10.80;99.90;;;;;;4971880;28;20031;-81
2021/12/15 02:50:55;;;;;;;31.42;26.48;;;10.80;99.90;;;;;;4973635;28;20426;-80
2021/12/15 02:53:21;;;;;;;35.20;28.85;;;10.80;99.90;;;;;;4972681;28;20019;-81
2021/12/15 02:55:47;;;;;;;40.20;30.25;;;10.80;99.90;;;;;;4973184;28;20081;-81
2021/12/15 02:58:12;;;;;;;33.33;27.30;;;10.80;99.90;;;;;;4973567;28;20042;-83
2021/12/15 03:01:18;;;;;;;29.52;24.67;;;10.70;99.90;;;;;;4972618;28;20023;-84
2021/12/15 03:06:12;;;;;;;33.00;25.63;;;10.80;99.90;;;;;;4974230;28;20013;-84
2021/12/15 03:09:02;;;;;;;;;;;10.80;99.90;;;;;;4973429;28;20030;-83
2021/12/15 03:17:06;;;;;;;32.45;26.08;;;10.70;99.90;;;;;;4955552;28;20146;-80
2021/12/15 03:19:32;;;;;;;32.22;27.10;;;10.70;99.90;;;;;;4973359;28;20019;-84
2021/12/15 03:21:58;;;;;;;30.83;26.55;;;10.70;99.90;;;;;;4973927;28;20406;-83
2021/12/15 03:24:26;;;;;;;32.55;25.98;;;10.70;99.90;;;;;;4973033;28;20053;-82
2021/12/15 03:27:01;;;;;;;33.33;27.38;;;10.70;99.90;;;;;;4974601;28;20388;-83
2021/12/15 03:35:19;;;;;;;30.73;26.23;;;10.70;99.90;;;;;;4973787;28;20567;-84
2021/12/15 03:37:52;;;;;;;35.72;28.67;;;10.70;99.90;;;;;;4972643;28;20046;-84
2021/12/15 03:40:33;;;;;;;32.13;26.95;;;10.70;99.90;;;;;;4974237;28;20050;-84
2021/12/15 03:43:02;;;;;;;30.48;25.65;;;10.60;99.90;;;;;;4972508;28;20240;-83
2021/12/15 03:45:37;;;;;;;35.85;28.92;;;10.70;99.90;;;;;;4973062;28;20023;-83
2021/12/15 03:48:07;;;;;;;34.72;27.75;;;10.60;99.90;;;;;;4972565;28;20073;-82
2021/12/15 03:50:32;;;;;;;34.90;27.63;;;10.60;99.90;;;;;;4971809;28;20169;-81
2021/12/15 03:52:59;;;;;;;33.05;27.50;;;10.60;99.90;;;;;;4972279;28;20117;-83
2021/12/15 03:55:29;;;;;;;36.78;28.92;;;10.60;99.90;;;;;;4971768;28;20023;-80
2021/12/15 03:57:55;;;;;;;36.28;28.45;;;10.70;99.90;;;;;;4972478;28;20025;-83
2021/12/15 04:00:22;;;;;;;34.40;27.42;;;10.60;99.90;;;;;;4972209;28;20045;-82
2021/12/15 04:02:49;;;;;;;32.05;26.48;;;10.60;99.90;;;;;;4971473;28;20015;-83
2021/12/15 04:05:17;;;;;;;33.42;26.63;;;10.60;99.90;;;;;;4972415;28;20553;-84
2021/12/15 04:07:43;;;;;;;33.10;26.67;;;10.60;99.90;;;;;;4972181;28;20054;-81
2021/12/15 04:10:11;;;;;;;34.08;28.50;;;10.60;99.90;;;;;;4971503;28;20471;-83
2021/12/15 04:12:37;;;;;;;30.08;25.30;;;10.70;99.90;;;;;;4972952;28;20030;-83
2021/12/15 04:15:25;;;;;;;33.80;26.98;;;10.70;99.90;;;;;;4972217;28;20027;-83
2021/12/15 04:18:02;;;;;;;31.60;25.00;;;10.70;99.90;;;;;;4971769;28;20041;-84
2021/12/15 04:20:32;;;;;;;31.65;25.80;;;10.70;99.90;;;;;;4971976;28;20146;-83
2021/12/15 04:23:00;;;;;;;31.10;25.58;;;10.70;99.90;;;;;;4971801;28;20043;-84
2021/12/15 04:25:29;;;;;;;35.33;27.00;;;10.70;99.90;;;;;;4972194;28;20031;-83
2021/12/15 04:28:05;;;;;;;29.17;25.30;;;10.70;99.90;;;;;;4971846;28;20074;-84
2021/12/15 04:30:33;;;;;;;35.25;27.08;;;10.70;99.90;;;;;;4972714;28;20059;-83
2021/12/15 04:33:07;;;;;;;34.35;27.52;;;10.60;99.90;;;;;;4971307;28;20033;-81
2021/12/15 04:35:33;;;;;;;34.78;27.23;;;10.60;99.90;;;;;;4971620;28;20048;-84
2021/12/15 04:37:59;;;;;;;36.15;28.33;;;10.60;99.90;;;;;;4970890;28;20479;-84
2021/12/15 04:40:25;;;;;;;37.08;28.08;;;10.70;99.90;;;;;;4972508;28;20030;-82
2021/12/15 04:42:51;;;;;;;35.45;27.30;;;10.60;99.90;;;;;;4972439;28;20027;-84
2021/12/15 04:45:19;;;;;;;32.38;25.63;;;10.60;99.90;;;;;;4972465;28;20019;-84
2021/12/15 04:47:45;;;;;;;36.08;28.23;;;10.60;99.90;;;;;;4971552;28;20399;-84
2021/12/15 04:50:11;;;;;;;35.35;26.80;;;10.60;99.90;;;;;;4972974;28;20086;-83
2021/12/15 04:52:38;;;;;;;33.17;27.13;;;10.60;99.90;;;;;;4970705;28;20054;-81
2021/12/15 04:55:07;;;;;;;32.00;26.05;;;10.60;99.90;;;;;;4973305;28;20051;-83
2021/12/15 04:57:33;;;;;;;29.73;25.08;;;10.60;99.90;;;;;;4971184;28;20039;-84
2021/12/15 04:59:59;;;;;;;32.92;25.85;;;10.60;99.90;;;;;;4971808;28;20045;-83
2021/12/15 05:02:25;;;;;;;35.15;27.95;;;10.60;99.90;;;;;;4972173;28;20479;-83
2021/12/15 05:04:52;;;;;;;36.20;27.60;;;10.60;99.90;;;;;;4972667;28;20026;-84
2021/12/15 05:07:19;;;;;;;34.53;27.20;;;10.60;99.90;;;;;;4971904;28;20023;-83
2021/12/15 05:09:49;;;;;;;32.05;25.63;;;10.60;99.90;;;;;;4972203;28;20045;-84
2021/12/15 05:12:16;;;;;;;31.15;25.75;;;10.60;99.90;;;;;;4972233;28;20476;-83
2021/12/15 05:14:41;;;;;;;33.55;26.60;;;10.60;99.90;;;;;;4970356;28;20019;-83
2021/12/15 05:17:07;;;;;;;35.03;27.83;;;10.60;99.90;;;;;;4971173;28;20376;-80
2021/12/15 05:19:33;;;;;;;33.17;26.35;;;10.60;99.90;;;;;;4972136;28;20027;-83
2021/12/15 05:21:58;;;;;;;31.50;25.45;;;10.60;99.90;;;;;;4970256;28;20029;-84
2021/12/15 05:27:16;;;;;;;34.75;26.02;;;10.60;99.90;;;;;;4972147;28;20035;-81
2021/12/15 05:29:43;;;;;;;30.85;24.67;;;10.60;99.90;;;;;;4970880;28;20117;-82
2021/12/15 05:32:11;;;;;;;29.52;24.15;;;10.60;99.90;;;;;;4970914;28;20025;-84
2021/12/15 05:34:38;;;;;;;30.90;23.48;;;10.60;99.90;;;;;;4971281;28;20027;-84
2021/12/15 05:37:04;;;;;;;31.50;24.95;;;10.70;99.90;;;;;;4970851;28;20471;-82
2021/12/15 05:39:31;;;;;;;30.75;25.38;;;10.70;99.90;;;;;;4970572;28;20034;-84
2021/12/15 05:41:56;;;;;;;29.75;24.35;;;10.70;99.90;;;;;;4970238;28;20550;-83
2021/12/15 05:44:24;;;;;;;31.48;25.92;;;10.70;99.90;;;;;;4972070;28;20054;-84
2021/12/15 05:46:53;;;;;;;32.05;26.25;;;10.70;99.90;;;;;;4972004;28;20392;-83
2021/12/15 05:49:18;;;;;;;30.23;24.98;;;10.70;99.90;;;;;;4969834;28;20026;-83
2021/12/15 05:51:44;;;;;;;32.67;25.88;;;10.70;99.90;;;;;;4971932;28;20039;-84
2021/12/15 05:54:10;;;;;;;31.33;26.23;;;10.70;99.90;;;;;;4974053;28;20055;-83
2021/12/15 05:56:36;;;;;;;32.63;25.73;;;10.70;99.90;;;;;;4973546;28;20039;-83
2021/12/15 05:59:03;;;;;;;31.65;26.42;;;10.70;99.90;;;;;;4975840;28;20486;-84
2021/12/15 06:01:29;;;;;;;36.03;29.60;;;10.70;99.90;;;;;;4974172;28;20099;-84
2021/12/15 06:03:55;;;;;;;33.80;27.38;;;10.70;99.90;;;;;;4975418;28;20031;-84
2021/12/15 06:06:21;;;;;;;34.38;28.35;;;10.70;99.90;;;;;;4975739;28;20023;-83
2021/12/15 06:08:47;;;;;;;35.42;28.30;;;10.70;99.90;;;;;;4974343;28;20038;-81
2021/12/15 06:11:12;;;;;;;32.55;25.88;;;10.70;99.90;;;;;;4973869;28;20031;-84
2021/12/15 06:13:38;;;;;;;33.85;26.65;;;10.70;99.90;;;;;;4975781;28;20023;-84
2021/12/15 06:16:05;;;;;;;37.80;29.40;;;10.70;99.90;;;;;;4974176;28;20034;-82
2021/12/15 06:18:31;;;;;;;32.65;26.60;;;10.70;99.90;;;;;;4974380;28;20049;-83
2021/12/15 06:20:57;;;;;;;30.48;25.20;;;10.70;99.90;;;;;;4974510;28;20432;-84
2021/12/15 06:23:23;;;;;;;32.15;25.77;;;10.70;99.90;;;;;;4973642;28;20384;-83
2021/12/15 06:25:55;;;;;;;35.45;26.80;;;10.70;99.90;;;;;;4974291;28;20467;-83
2021/12/15 06:28:23;;;;;;;30.58;25.70;;;10.70;99.90;;;;;;4974260;28;20026;-81
2021/12/15 06:30:49;;;;;;;32.65;26.42;;;10.70;99.90;;;;;;4973655;28;20022;-81
2021/12/15 06:33:15;;;;;;;36.28;28.85;;;10.70;99.90;;;;;;4973005;28;20097;-81
2021/12/15 06:35:42;;;;;;;37.88;29.58;;;10.70;99.90;;;;;;4973245;28;20027;-81
2021/12/15 06:38:07;;;;;;;34.90;28.67;;;10.70;99.90;;;;;;4973623;28;20022;-83
2021/12/15 06:40:34;;;;;;;35.60;28.42;;;10.70;99.90;;;;;;4984380;28;20121;-82
2021/12/15 06:43:01;;;;;;;32.08;26.95;;;10.70;99.90;;;;;;4995200;28;20037;-84
2021/12/15 06:45:39;;;;;;;33.97;27.63;;;10.70;99.90;;;;;;4995177;28;20032;-82
2021/12/15 06:57:27;;;;;;;35.28;28.45;;;10.70;99.90;;;;;;4993984;28;20022;-84
2021/12/15 06:59:22;;;;;;;36.92;26.55;;;10.70;99.90;;;;;;4933335;29;20034;-81
2021/12/15 07:01:51;;;;;;;32.70;26.02;;;10.70;99.90;;;;;;4918077;29;20024;-84
2021/12/15 07:04:22;;;;;;;32.67;25.73;;;10.70;99.90;;;;;;4952256;28;20043;-82
2021/12/15 07:06:49;;;;;;;29.63;23.40;;;10.70;99.90;;;;;;4972863;28;20069;-83
2021/12/15 07:09:15;;;;;;;31.67;24.90;;;10.80;99.90;;;;;;4973084;28;20062;-82
2021/12/15 07:11:41;;;;;;;28.83;24.08;;;10.80;99.90;;;;;;4972895;28;20059;-82
2021/12/15 07:14:07;;;;;;;35.70;27.08;;;10.80;99.90;;;;;;4972841;28;20027;-82
2021/12/15 07:16:38;;;;;;;35.35;27.33;;;10.80;99.90;;;;;;4973892;28;20039;-80
2021/12/15 07:19:15;;;;;;;37.05;27.58;;;10.80;99.90;;;;;;4973362;28;20029;-82
2021/12/15 07:21:51;;;;;;;33.65;27.83;;;10.80;99.90;;;;;;4972270;28;20069;-83
2021/12/15 07:24:17;;;;;;;37.45;28.42;;;10.80;99.90;;;;;;4972515;28;20047;-83
2021/12/15 07:26:42;;;;;;;37.78;28.25;;;10.70;99.90;;;;;;4971721;28;20086;-83
2021/12/15 07:29:08;;;;;;;35.05;26.83;;;10.70;99.90;;;;;;4993539;28;20081;-83
2021/12/15 07:31:34;;;;;;;36.45;28.38;;;10.70;99.90;;;;;;4986436;28;20042;-83
2021/12/15 07:33:59;;;;;;;32.33;25.92;;;10.70;99.90;;;;;;4973565;28;20023;-83
2021/12/15 07:36:25;;;;;;;34.80;26.45;;;10.70;99.90;;;;;;4973850;28;20469;-83
2021/12/15 07:38:52;;;;;;;34.10;26.35;;;10.80;99.90;;;;;;4972909;28;20019;-82
2021/12/15 07:41:37;;;;;;;34.70;26.52;;;10.80;99.90;;;;;;4969499;28;20495;-82
2021/12/15 07:44:03;;;;;;;38.20;29.80;;;10.70;99.90;;;;;;4972139;28;20085;-84
2021/12/15 07:46:32;;;;;;;36.88;27.60;;;10.80;99.90;;;;;;4971080;28;20030;-84
2021/12/15 07:48:57;;;;;;;35.80;26.70;;;10.80;99.90;;;;;;4971842;28;20030;-86
2021/12/15 07:51:23;;;;;;;40.28;29.83;;;10.70;99.90;;;;;;4971364;28;20022;-86
2021/12/15 07:53:49;;;;;;;40.78;29.52;;;10.70;99.90;;;;;;4967172;28;20178;-88
2021/12/15 07:56:15;;;;;;;38.70;29.73;;;10.70;99.90;;;;;;4967261;28;20081;-85
2021/12/15 07:58:41;;;;;;;37.22;27.70;;;10.80;99.90;;;;;;4993947;28;20026;-86
2021/12/15 08:01:06;;;;;;;38.33;26.92;;;10.70;99.90;;;;;;4980161;28;20015;-82
2021/12/15 08:03:37;;;;;;;42.83;29.13;;;10.70;99.90;;;;;;4972134;28;20603;-89
2021/12/15 08:06:03;;;;;;;36.75;28.15;;;10.70;99.90;;;;;;4970893;28;20030;-87
2021/12/15 08:08:29;;;;;;;39.88;27.40;;;10.80;99.90;;;;;;4973756;28;20035;-93
2021/12/15 08:10:56;;;;;;;42.42;28.50;;;10.80;99.90;;;;;;4972440;28;20268;-86
2021/12/15 08:13:31;;;;;;;40.10;27.98;;;10.80;99.90;;;;;;4984815;28;20080;-88
2021/12/15 08:15:58;;;;;;;42.58;27.77;;;10.80;99.90;;;;;;4981653;28;20636;-80
2021/12/15 08:18:24;;;;;;;46.58;30.48;;;10.80;99.90;;;;;;4955618;28;20026;-86
2021/12/15 08:20:51;;;;;;;44.30;30.95;;;10.80;99.90;;;;;;4970534;28;20540;-87
2021/12/15 08:23:18;;;;;;;40.35;29.10;;;10.80;99.90;;;;;;4964221;28;20054;-87
2021/12/15 08:25:52;;;;;;;48.75;31.95;;;10.80;99.90;;;;;;4953335;28;20054;-90
2021/12/15 08:28:37;;;;;;;45.92;32.13;;;10.80;99.90;;;;;;4963644;28;20743;-84
2021/12/15 08:31:04;;;;;;;44.67;31.40;;;10.80;99.90;;;;;;4971132;28;20026;-86
2021/12/15 08:33:30;;;;;;;46.28;31.88;;;10.80;99.90;;;;;;4971519;28;20517;-85
2021/12/15 08:36:01;;;;;;;45.83;30.58;;;10.90;99.90;;;;;;4972958;28;20142;-85
2021/12/15 08:38:29;;;;;;;50.25;33.17;;;10.80;99.90;;;;;;4963002;28;20065;-93
2021/12/15 08:40:56;;;;;;;47.30;31.92;;;10.90;99.90;;;;;;4954777;28;20034;-91
2021/12/15 08:43:24;;;;;;;44.78;31.30;;;10.80;99.90;;;;;;4971231;28;20031;-85
2021/12/15 08:46:01;;;;;;;46.45;33.10;;;10.90;99.90;;;;;;4971893;28;20549;-88
2021/12/15 08:48:27;;;;;;;46.55;32.35;;;10.90;99.90;;;;;;4941319;28;20062;-86
2021/12/15 08:50:59;;;;;;;48.58;31.48;;;10.90;99.90;;;;;;4974694;28;20030;-84
2021/12/15 08:53:25;;;;;;;44.28;30.65;;;10.90;99.90;;;;;;4971792;28;20031;-85
2021/12/15 08:55:51;;;;;;;47.92;32.58;;;10.90;99.90;;;;;;4972961;28;20054;-88
2021/12/15 08:58:19;;;;;;;57.15;36.45;;;10.90;99.90;;;;;;4970825;28;20058;-83
2021/12/15 09:00:47;;;;;;;49.35;33.65;;;10.90;99.90;;;;;;4972642;28;20487;-84
2021/12/15 09:03:14;;;;;;;47.30;32.33;;;10.90;99.90;;;;;;4971825;28;20031;-88
2021/12/15 09:05:52;;;;;;;42.00;30.75;;;10.90;99.90;;;;;;4970607;28;20058;-89
2021/12/15 09:08:20;;;;;;;44.60;30.67;;;11.00;99.90;;;;;;4955762;28;20369;-85
2021/12/15 09:10:46;;;;;;;50.22;33.17;;;11.00;99.90;;;;;;4969666;28;20500;-87
2021/12/15 09:13:13;;;;;;;41.85;30.25;;;10.90;99.90;;;;;;4971131;28;20083;-84
2021/12/15 09:15:40;;;;;;;42.40;29.45;;;10.90;99.90;;;;;;4968816;28;20475;-85
2021/12/15 09:18:10;;;;;;;49.55;31.85;;;10.90;99.90;;;;;;4970172;28;20035;-86
2021/12/15 09:20:40;;;;;;;40.85;29.23;;;11.00;99.90;;;;;;4970957;28;20372;-86
2021/12/15 09:23:16;;;;;;;38.17;26.25;;;11.00;99.90;;;;;;4980945;28;20390;-79
2021/12/15 09:25:43;;;;;;;43.03;29.92;;;11.00;99.90;;;;;;4967447;28;20018;-84
2021/12/15 09:28:09;;;;;;;50.70;33.20;;;11.00;99.90;;;;;;4967480;28;20037;-80
2021/12/15 09:30:43;;;;;;;46.17;31.60;;;11.00;99.90;;;;;;4973664;28;20027;-84
2021/12/15 09:33:13;;;;;;;42.83;29.25;;;11.00;99.90;;;;;;4991198;28;20033;-83
2021/12/15 09:35:39;;;;;;;45.30;30.63;;;11.10;99.90;;;;;;4967044;28;20078;-82
2021/12/15 09:38:05;;;;;;;52.35;33.65;;;11.00;99.90;;;;;;4988989;28;20050;-82
2021/12/15 09:40:30;;;;;;;44.38;31.52;;;11.10;99.90;;;;;;4969813;28;20991;-82
2021/12/15 09:42:57;;;;;;;43.10;30.00;;;11.00;99.90;;;;;;4988648;28;20046;-82
2021/12/15 09:45:51;;;;;;;46.90;31.60;;;11.10;99.90;;;;;;4972595;28;20540;-82
2021/12/15 10:19:57;;;;;;;49.17;33.70;;;11.10;99.90;;;;;;4952498;29;20050;-92
2021/12/15 10:24:59;;;;;;;49.45;35.13;;;11.20;99.90;;;;;;4950681;29;20448;-87
2021/12/15 10:28:11;;;;;;;48.70;32.85;;;11.10;99.90;;;;;;4929408;29;20488;-85
2021/12/15 10:30:43;;;;;;;44.35;33.15;;;11.20;99.90;;;;;;4931186;29;20063;-82
2021/12/15 10:33:43;;;;;;;45.85;33.25;;;11.20;99.90;;;;;;4931485;29;20032;-87
2021/12/15 10:36:13;;;;;;;46.47;33.45;;;11.20;99.90;;;;;;4915232;28;20135;-81
2021/12/15 10:38:45;;;;;;;43.63;31.75;;;11.20;99.90;;;;;;4932648;29;20073;-84
2021/12/15 10:41:24;;;;;;;43.55;32.95;;;11.20;99.90;;;;;;4921110;29;20036;-84
2021/12/15 10:43:59;;;;;;;43.15;33.42;;;11.30;99.90;;;;;;4934016;29;20187;-83
2021/12/15 10:46:33;;;;;;;48.90;37.25;;;11.30;99.90;;;;;;4942732;28;20035;-83
2021/12/15 10:49:09;;;;;;;42.45;33.38;;;11.30;99.90;;;;;;4977902;28;20022;-81
2021/12/15 10:51:50;;;;;;;43.30;32.17;;;11.30;99.90;;;;;;4993677;28;20076;-85
2021/12/15 10:54:32;;;;;;;33.60;24.70;;;11.30;99.90;;;;;;4991282;28;20121;-83
2021/12/15 10:57:11;;;;;;;48.72;37.35;;;11.30;99.90;;;;;;4957155;28;20035;-87
2021/12/15 10:59:42;;;;;;;48.42;36.10;;;11.30;99.90;;;;;;4972471;28;20023;-83
2021/12/15 11:02:11;;;;;;;38.78;29.98;;;11.40;99.90;;;;;;4973208;28;20022;-86
2021/12/15 11:04:49;;;;;;;38.38;27.98;;;11.40;99.90;;;;;;4972892;28;20368;-84
2021/12/15 11:07:25;;;;;;;41.72;31.77;;;11.50;99.90;;;;;;4973353;28;20027;-85
2021/12/15 11:09:57;;;;;;;40.75;32.05;;;11.50;99.90;;;;;;4974845;28;20106;-88
2021/12/15 11:12:41;;;;;;;44.40;33.33;;;11.60;99.90;;;;;;4971047;28;20488;-84
2021/12/15 11:15:26;;;;;;;47.47;35.85;;;11.60;99.90;;;;;;4973724;28;20054;-84
2021/12/15 11:17:53;;;;;;;41.08;33.08;;;11.60;99.90;;;;;;4972231;28;20483;-84
2021/12/15 11:20:28;;;;;;;38.47;30.98;;;11.60;99.90;;;;;;4972290;28;20069;-88
2021/12/15 11:23:01;;;;;;;37.28;29.83;;;11.60;99.90;;;;;;4972659;28;20487;-88
2021/12/15 11:25:39;;;;;;;37.63;30.42;;;11.70;99.90;;;;;;4973596;28;20023;-86
2021/12/15 11:28:13;;;;;;;34.20;28.15;;;11.70;99.90;;;;;;4970430;28;20019;-87
2021/12/15 11:31:13;;;;;;;38.88;30.52;;;11.70;99.90;;;;;;4973510;28;20093;-81
2021/12/15 11:33:45;;;;;;;38.63;30.90;;;11.80;99.90;;;;;;4971955;28;20031;-85
2021/12/15 11:36:27;;;;;;;37.80;31.17;;;11.80;99.90;;;;;;4970683;28;20031;-79
2021/12/15 11:38:57;;;;;;;41.95;33.80;;;11.80;99.90;;;;;;4972375;28;20522;-78
2021/12/15 11:41:25;;;;;;;42.08;33.50;;;11.80;99.90;;;;;;4972237;28;20023;-79
2021/12/15 11:43:55;;;;;;;43.33;32.45;;;11.80;99.90;;;;;;4972616;28;20026;-84
2021/12/15 11:46:34;;;;;;;36.67;30.67;;;11.80;99.90;;;;;;4969647;28;20688;-80
2021/12/15 11:49:05;;;;;;;40.50;32.63;;;11.80;99.90;;;;;;4977196;28;20029;-82
2021/12/15 11:51:42;;;;;;;36.65;30.90;;;11.80;99.90;;;;;;4967691;28;20114;-89
2021/12/15 11:54:19;;;;;;;37.50;31.67;;;11.80;99.90;;;;;;4968455;28;20022;-82
2021/12/15 11:56:48;;;;;;;35.42;29.23;;;11.80;99.90;;;;;;4972316;28;20043;-88
2021/12/15 11:59:31;;;;;;;33.63;28.83;;;11.80;99.90;;;;;;4972214;28;20052;-84
2021/12/15 12:02:26;;;;;;;36.45;29.35;;;11.80;99.90;;;;;;4973736;28;20037;-87
2021/12/15 12:04:52;;;;;;;36.17;30.35;;;11.80;99.90;;;;;;4966132;28;20034;-78
2021/12/15 12:07:26;;;;;;;35.15;30.67;;;11.80;99.90;;;;;;4972962;28;20498;-81
2021/12/15 12:09:54;;;;;;;32.70;28.45;;;11.80;99.90;;;;;;4971892;28;20457;-90
2021/12/15 12:12:24;;;;;;;34.10;29.17;;;11.70;99.90;;;;;;4973039;28;20105;-85
2021/12/15 12:14:50;;;;;;;31.67;28.20;;;11.70;99.90;;;;;;4971998;28;20464;-85
2021/12/15 12:17:33;;;;;;;32.60;28.00;;;11.80;99.90;;;;;;4972384;28;20085;-90
2021/12/15 12:20:04;;;;;;;37.22;31.13;;;11.70;99.90;;;;;;4972566;28;20034;-92
2021/12/15 12:22:32;;;;;;;33.83;29.65;;;11.70;99.90;;;;;;4976013;28;20561;-87
2021/12/15 12:25:01;;;;;;;31.90;28.52;;;11.70;99.90;;;;;;4993025;28;20558;-87
2021/12/15 12:27:30;;;;;;;34.72;28.20;;;11.70;99.90;;;;;;4974959;28;20022;-89
2021/12/15 12:29:58;;;;;;;34.35;29.15;;;11.70;99.90;;;;;;4974874;28;20018;-87
2021/12/15 12:32:24;;;;;;;32.97;27.92;;;11.70;99.90;;;;;;4975287;28;20471;-87
2021/12/15 12:34:52;;;;;;;30.35;26.80;;;11.70;99.90;;;;;;4975588;28;20435;-87
2021/12/15 12:37:20;;;;;;;28.42;25.33;;;11.80;99.90;;;;;;4974324;28;20375;-86
2021/12/15 12:39:53;;;;;;;29.25;25.02;;;11.80;99.90;;;;;;4993124;28;20022;-83
2021/12/15 12:42:48;;;;;;;30.65;26.67;;;11.80;99.90;;;;;;4975053;28;20125;-85
2021/12/15 12:45:32;;;;;;;28.77;25.73;;;11.90;99.90;;;;;;4974793;28;20491;-85
2021/12/15 12:59:35;;;;;;;28.75;25.45;;;12.00;99.90;;;;;;4991983;28;20118;-84
2021/12/15 13:02:05;;;;;;;26.45;23.63;;;12.00;99.90;;;;;;4973918;28;20023;-86
2021/12/15 13:04:41;;;;;;;31.17;25.35;;;11.90;99.90;;;;;;4973922;28;20080;-82
2021/12/15 13:07:07;;;;;;;27.48;24.10;;;11.90;99.90;;;;;;4974508;28;20037;-87
2021/12/15 13:09:51;;;;;;;29.58;24.45;;;11.90;99.90;;;;;;4974418;28;20027;-84
2021/12/15 13:12:27;;;;;;;27.38;23.90;;;11.90;99.90;;;;;;4973580;28;20023;-83
2021/12/15 13:14:57;;;;;;;26.98;21.83;;;11.90;99.90;;;;;;4991611;28;20034;-83
2021/12/15 13:17:27;;;;;;;26.83;21.23;;;11.90;99.90;;;;;;4974484;28;20038;-84
2021/12/15 13:19:54;;;;;;;24.45;21.23;;;11.90;99.90;;;;;;4974297;28;20057;-86
2021/12/15 13:22:38;;;;;;;25.58;21.90;;;11.90;99.90;;;;;;4973965;28;20029;-87
2021/12/15 13:31:19;;;;;;;25.38;20.48;;;11.80;99.90;;;;;;4992407;28;20057;-83
2021/12/15 13:33:47;;;;;;;22.30;19.45;;;11.80;99.90;;;;;;4973923;28;20133;-82
2021/12/15 13:36:40;;;;;;;23.60;18.92;;;11.80;99.90;;;;;;4974559;28;20041;-84
2021/12/15 13:39:10;;;;;;;21.20;18.80;;;11.80;99.90;;;;;;4975293;28;20033;-83
2021/12/15 13:44:35;;;;;;;20.60;18.00;;;11.80;99.90;;;;;;4992006;28;20034;-89
2021/12/15 13:47:07;;;;;;;24.52;19.45;;;11.80;99.90;;;;;;4973978;28;20014;-83
2021/12/15 13:49:43;;;;;;;;;;;11.80;99.90;;;;;;4974813;28;20057;-82
2021/12/15 13:52:28;;;;;;;20.35;16.90;;;11.80;99.90;;;;;;4974093;28;19905;-89
2021/12/15 13:55:11;;;;;;;17.92;16.02;;;11.70;99.90;;;;;;4974077;28;20372;-86
2021/12/15 13:57:47;;;;;;;19.27;15.38;;;11.80;99.90;;;;;;4991718;28;20041;-82
2021/12/15 14:00:32;;;;;;;18.48;14.95;;;11.80;99.90;;;;;;4974058;28;20057;-87
2021/12/15 14:03:00;;;;;;;18.02;14.60;;;11.80;99.90;;;;;;4991420;28;20093;-88
2021/12/15 14:05:34;;;;;;;16.45;14.02;;;11.80;99.90;;;;;;4991563;28;20529;-84
2021/12/15 14:08:04;;;;;;;15.48;12.93;;;11.80;99.90;;;;;;4991040;28;20101;-85
2021/12/15 14:10:29;;;;;;;14.02;12.55;;;11.80;99.90;;;;;;4991520;28;20026;-85
2021/12/15 14:12:58;;;;;;;14.68;12.63;;;11.80;99.90;;;;;;4973986;28;20460;-83
2021/12/15 14:15:38;;;;;;;13.75;11.98;;;11.80;99.90;;;;;;4994444;28;20049;-85
2021/12/15 14:18:27;;;;;;;14.27;11.20;;;11.90;99.90;;;;;;4977724;28;20074;-91
2021/12/15 14:21:19;;;;;;;15.00;12.32;;;11.90;99.90;;;;;;4977835;28;20019;-84